createdAt,value
2018-06-28T00:00:19.044Z,77.80
2018-06-28T00:05:15.538Z,77.80
2018-06-28T00:07:43.960Z,77.70
2018-06-28T00:12:40.453Z,77.00
2018-06-28T00:15:08.857Z,77.50
2018-06-28T00:17:37.248Z,77.40
2018-06-28T00:20:05.718Z,77.60
2018-06-28T00:22:34.113Z,77.70
2018-06-28T00:25:02.507Z,77.70
2018-06-28T00:29:58.995Z,78.10
2018-06-28T00:32:27.450Z,78.10
2018-06-28T00:34:55.848Z,78.50
2018-06-28T00:37:24.270Z,78.80
2018-06-28T00:39:52.668Z,79.10
2018-06-28T00:42:21.079Z,79.40
2018-06-28T00:44:49.480Z,79.60
2018-06-28T00:47:17.901Z,79.60
2018-06-28T00:52:14.368Z,80.70
2018-06-28T00:57:10.882Z,80.60
2018-06-28T00:59:39.288Z,80.60
2018-06-28T01:02:07.653Z,80.50
2018-06-28T01:04:36.119Z,80.40
2018-06-28T01:07:04.848Z,80.40
2018-06-28T01:09:33.241Z,80.40
2018-06-28T01:12:01.648Z,80.40
2018-06-28T01:14:30.077Z,80.60
2018-06-28T01:16:58.502Z,80.60
2018-06-28T01:19:26.930Z,80.90
2018-06-28T01:21:55.316Z,81.00
2018-06-28T01:24:23.763Z,81.30
2018-06-28T01:26:52.161Z,81.50
2018-06-28T01:29:20.580Z,81.70
2018-06-28T01:31:49.050Z,81.90
2018-06-28T01:36:45.534Z,81.90
2018-06-28T01:39:13.935Z,81.90
2018-06-28T01:41:53.655Z,82.00
2018-06-28T01:44:22.164Z,82.20
2018-06-28T01:46:50.678Z,82.10
2018-06-28T01:49:19.025Z,82.40
2018-06-28T01:51:47.425Z,82.70
2018-06-28T01:54:15.822Z,82.70
2018-06-28T01:56:44.229Z,83.50
2018-06-28T01:59:12.655Z,82.80
2018-06-28T02:01:41.074Z,82.90
2018-06-28T02:04:09.433Z,83.40
2018-06-28T02:06:37.847Z,82.90
2018-06-28T02:09:08.523Z,83.10
2018-06-28T02:11:37.060Z,83.10
2018-06-28T02:14:05.889Z,83.50
2018-06-28T02:16:34.388Z,83.60
2018-06-28T02:19:02.830Z,83.70
2018-06-28T02:21:31.263Z,83.20
2018-06-28T02:26:27.795Z,83.60
2018-06-28T02:28:56.188Z,83.60
2018-06-28T02:33:52.704Z,83.70
2018-06-28T02:36:21.114Z,84.00
2018-06-28T02:41:17.629Z,84.20
2018-06-28T02:43:46.098Z,84.30
2018-06-28T02:46:14.489Z,84.30
2018-06-28T02:48:42.875Z,84.30
2018-06-28T02:51:11.249Z,84.30
2018-06-28T02:53:39.616Z,84.30
2018-06-28T02:56:08.031Z,84.50
2018-06-28T02:58:36.391Z,84.50
2018-06-28T03:01:04.802Z,84.50
2018-06-28T03:06:01.338Z,85.00
2018-06-28T03:08:29.783Z,85.00
2018-06-28T03:10:58.167Z,85.00
2018-06-28T03:13:26.666Z,85.10
2018-06-28T03:15:55.112Z,85.10
2018-06-28T03:18:23.505Z,85.00
2018-06-28T03:20:51.915Z,85.10
2018-06-28T03:23:20.318Z,85.30
2018-06-28T03:25:48.744Z,85.20
2018-06-28T03:28:17.178Z,85.10
2018-06-28T03:33:13.779Z,85.00
2018-06-28T03:35:42.183Z,85.00
2018-06-28T03:38:10.840Z,85.10
2018-06-28T03:40:39.206Z,85.30
2018-06-28T03:43:07.619Z,85.30
2018-06-28T03:45:36.156Z,86.00
2018-06-28T03:48:04.788Z,85.80
2018-06-28T03:50:33.204Z,85.00
2018-06-28T03:53:01.586Z,83.40
2018-06-28T03:55:29.974Z,81.50
2018-06-28T03:57:59.092Z,79.30
2018-06-28T04:00:27.520Z,77.10
2018-06-28T04:02:55.898Z,74.60
2018-06-28T04:05:24.297Z,72.30
2018-06-28T04:07:52.708Z,69.90
2018-06-28T04:10:21.100Z,67.80
2018-06-28T04:12:49.517Z,65.50
2018-06-28T04:15:17.874Z,63.00
2018-06-28T04:17:46.298Z,60.80
2018-06-28T04:20:14.779Z,59.10
2018-06-28T04:25:11.290Z,57.30
2018-06-28T04:27:39.707Z,55.90
2018-06-28T04:30:08.136Z,54.30
2018-06-28T04:32:36.579Z,52.80
2018-06-28T04:35:05.006Z,51.60
2018-06-28T04:37:33.385Z,50.20
2018-06-28T04:40:01.773Z,49.40
2018-06-28T04:42:30.133Z,48.80
2018-06-28T04:44:58.542Z,47.80
2018-06-28T04:52:23.070Z,44.00
2018-06-28T04:57:19.659Z,42.40
2018-06-28T04:59:48.060Z,42.10
2018-06-28T05:02:16.667Z,41.30
2018-06-28T05:04:45.020Z,40.40
2018-06-28T05:07:13.485Z,40.20
2018-06-28T05:09:41.873Z,39.50
2018-06-28T05:12:10.241Z,38.90
2018-06-28T05:14:38.589Z,38.00
2018-06-28T05:17:07.071Z,37.70
2018-06-28T05:19:35.453Z,37.20
2018-06-28T05:22:03.885Z,36.60
2018-06-28T05:24:32.261Z,36.10
2018-06-28T05:27:00.665Z,36.10
2018-06-28T05:29:29.133Z,36.00
2018-06-28T05:31:57.532Z,35.70
2018-06-28T05:34:25.957Z,35.30
2018-06-28T05:36:54.360Z,35.00
2018-06-28T05:39:22.788Z,35.10
2018-06-28T05:41:51.196Z,34.00
2018-06-28T05:44:19.620Z,34.70
2018-06-28T05:51:44.335Z,36.00
2018-06-28T05:54:12.980Z,35.50
2018-06-28T05:56:41.439Z,35.40
2018-06-28T05:59:09.818Z,36.10
2018-06-28T06:01:38.203Z,36.30
2018-06-28T06:04:06.609Z,36.90
2018-06-28T06:06:35.032Z,37.50
2018-06-28T06:09:03.914Z,37.50
2018-06-28T06:11:32.699Z,39.50
2018-06-28T06:14:01.054Z,41.40
2018-06-28T06:16:29.444Z,42.60
2018-06-28T06:18:57.862Z,42.40
2018-06-28T06:23:54.466Z,44.90
2018-06-28T06:26:23.038Z,45.30
2018-06-28T06:28:51.439Z,45.80
2018-06-28T06:31:19.959Z,46.50
2018-06-28T06:33:48.359Z,47.10
2018-06-28T06:36:16.830Z,48.60
2018-06-28T06:38:45.244Z,47.80
2018-06-28T06:41:13.666Z,47.90
2018-06-28T06:46:10.191Z,48.50
2018-06-28T06:48:38.627Z,48.90
2018-06-28T06:51:07.077Z,49.20
2018-06-28T06:53:35.453Z,49.10
2018-06-28T06:56:03.928Z,49.50
2018-06-28T06:58:32.308Z,49.90
2018-06-28T07:01:00.720Z,50.20
2018-06-28T07:03:29.135Z,51.70
2018-06-28T07:05:57.587Z,51.40
2018-06-28T07:08:26.037Z,51.10
2018-06-28T07:10:54.466Z,51.20
2018-06-28T07:13:22.907Z,51.10
2018-06-28T07:15:51.339Z,51.60
2018-06-28T07:18:19.769Z,52.00
2018-06-28T07:20:48.194Z,51.60
2018-06-28T07:23:16.681Z,52.20
2018-06-28T07:25:45.196Z,51.30
2018-06-28T07:28:13.584Z,51.70
2018-06-28T07:30:42.224Z,52.30
2018-06-28T07:33:10.670Z,52.20
2018-06-28T07:35:39.075Z,51.50
2018-06-28T07:38:07.555Z,51.70
2018-06-28T07:43:04.117Z,52.20
2018-06-28T07:45:32.509Z,52.50
2018-06-28T07:48:00.920Z,52.10
2018-06-28T07:50:29.415Z,51.70
2018-06-28T07:52:57.828Z,51.50
2018-06-28T07:55:26.329Z,51.20
2018-06-28T07:57:54.666Z,50.70
2018-06-28T08:00:23.236Z,50.30
2018-06-28T08:02:51.453Z,50.10
2018-06-28T08:05:19.871Z,50.60
2018-06-28T08:10:16.376Z,49.60
2018-06-28T08:12:44.747Z,49.70
2018-06-28T08:15:13.174Z,50.40
2018-06-28T08:17:41.602Z,49.80
2018-06-28T08:20:10.007Z,50.10
2018-06-28T08:22:38.443Z,49.60
2018-06-28T08:25:06.902Z,49.70
2018-06-28T08:30:03.657Z,49.10
2018-06-28T08:32:32.077Z,48.60
2018-06-28T08:35:00.477Z,48.70
2018-06-28T08:37:28.862Z,48.60
2018-06-28T08:39:57.234Z,48.30
2018-06-28T08:42:25.619Z,48.50
2018-06-28T08:44:53.975Z,48.00
2018-06-28T08:47:22.428Z,47.50
2018-06-28T08:49:50.863Z,47.50
2018-06-28T08:52:19.308Z,47.90
2018-06-28T08:54:47.678Z,47.50
2018-06-28T08:57:16.089Z,47.10
2018-06-28T08:59:44.437Z,47.10
2018-06-28T09:02:12.836Z,47.40
2018-06-28T09:04:41.229Z,47.10
2018-06-28T09:07:09.638Z,46.70
2018-06-28T09:09:38.061Z,47.30
2018-06-28T09:12:06.437Z,46.70
2018-06-28T09:14:34.793Z,46.50
2018-06-28T09:17:03.201Z,47.00
2018-06-28T09:19:31.592Z,46.10
2018-06-28T09:21:59.982Z,46.50
2018-06-28T09:24:28.372Z,46.00
2018-06-28T09:26:56.809Z,45.80
2018-06-28T09:29:25.188Z,45.50
2018-06-28T09:31:53.574Z,45.10
2018-06-28T09:34:22.005Z,45.10
2018-06-28T09:36:50.395Z,44.60
2018-06-28T09:41:46.867Z,45.50
2018-06-28T09:44:15.291Z,45.20
2018-06-28T09:46:43.727Z,45.30
2018-06-28T09:49:12.122Z,45.70
2018-06-28T09:51:40.515Z,45.50
2018-06-28T09:54:08.940Z,45.10
2018-06-28T09:56:37.318Z,45.90
2018-06-28T09:59:05.715Z,45.70
2018-06-28T10:01:34.073Z,45.70
2018-06-28T10:04:02.481Z,45.60
2018-06-28T10:06:30.877Z,44.70
2018-06-28T10:08:59.365Z,44.90
2018-06-28T10:11:27.776Z,44.80
2018-06-28T10:13:56.235Z,44.60
2018-06-28T10:16:24.715Z,44.70
2018-06-28T10:18:53.132Z,44.70
2018-06-28T10:26:17.695Z,43.60
2018-06-28T10:28:46.127Z,43.60
2018-06-28T10:31:14.516Z,43.70
2018-06-28T10:33:43.069Z,43.30
2018-06-28T10:36:11.588Z,43.20
2018-06-28T10:38:40.060Z,43.70
2018-06-28T10:43:36.711Z,43.60
2018-06-28T10:48:33.266Z,44.00
2018-06-28T10:51:01.713Z,43.80
2018-06-28T10:53:30.094Z,44.10
2018-06-28T10:55:58.470Z,43.10
2018-06-28T10:58:26.883Z,43.50
2018-06-28T11:03:23.497Z,44.50
2018-06-28T11:05:51.871Z,44.70
2018-06-28T11:08:20.345Z,43.80
2018-06-28T11:10:48.772Z,44.30
2018-06-28T11:13:17.400Z,42.90
2018-06-28T11:15:45.864Z,44.00
2018-06-28T11:18:14.241Z,43.50
2018-06-28T11:20:42.682Z,43.00
2018-06-28T11:23:11.089Z,42.10
2018-06-28T11:25:39.487Z,42.80
2018-06-28T11:28:07.899Z,43.20
2018-06-28T11:30:36.318Z,41.60
2018-06-28T11:33:04.771Z,41.10
2018-06-28T11:35:33.149Z,40.80
2018-06-28T11:38:01.546Z,39.90
2018-06-28T11:40:29.959Z,39.40
2018-06-28T11:42:58.390Z,40.90
2018-06-28T11:45:26.803Z,41.50
2018-06-28T11:47:55.176Z,41.20
2018-06-28T11:50:23.615Z,40.90
2018-06-28T11:52:52.014Z,39.90
2018-06-28T11:55:20.404Z,41.30
2018-06-28T12:00:17.361Z,40.50
2018-06-28T12:07:43.294Z,40.70
2018-06-28T12:10:11.698Z,41.50
2018-06-28T12:15:14.806Z,41.90
2018-06-28T12:20:11.295Z,42.10
2018-06-28T12:22:39.696Z,42.50
2018-06-28T12:25:08.148Z,42.50
2018-06-28T12:27:36.504Z,41.70
2018-06-28T12:32:33.011Z,41.40
2018-06-28T12:35:01.398Z,41.20
2018-06-28T12:37:29.805Z,40.30
2018-06-28T12:39:58.169Z,40.90
2018-06-28T12:42:26.569Z,41.20
2018-06-28T12:44:55.174Z,40.80
2018-06-28T12:47:37.455Z,40.00
2018-06-28T12:52:43.488Z,39.20
2018-06-28T12:55:13.120Z,39.10
2018-06-28T12:57:41.540Z,39.60
2018-06-28T13:00:10.064Z,40.20
2018-06-28T13:02:38.550Z,40.40
2018-06-28T13:05:07.229Z,41.00
2018-06-28T13:07:35.683Z,41.40
2018-06-28T13:10:04.919Z,41.10
2018-06-28T13:12:33.380Z,40.80
2018-06-28T13:15:01.800Z,40.00
2018-06-28T13:17:31.115Z,40.30
2018-06-28T13:19:59.618Z,40.40
2018-06-28T13:22:28.035Z,40.90
2018-06-28T13:24:56.475Z,41.10
2018-06-28T13:27:25.093Z,40.50
2018-06-28T13:29:53.580Z,40.90
2018-06-28T13:32:21.990Z,41.10
2018-06-28T13:37:18.574Z,40.40
2018-06-28T13:39:47.053Z,40.40
2018-06-28T13:42:15.501Z,39.20
2018-06-28T13:44:43.867Z,39.30
2018-06-28T13:47:12.289Z,39.80
2018-06-28T13:49:40.709Z,40.90
2018-06-28T13:52:09.160Z,40.50
2018-06-28T13:54:37.576Z,40.30
2018-06-28T13:57:06.030Z,40.30
2018-06-28T13:59:34.437Z,39.70
2018-06-28T14:02:02.901Z,40.70
2018-06-28T14:04:31.300Z,40.20
2018-06-28T14:06:59.701Z,39.90
2018-06-28T14:09:28.190Z,39.00
2018-06-28T14:11:56.495Z,38.70
2018-06-28T14:14:25.019Z,39.00
2018-06-28T14:16:53.421Z,39.40
2018-06-28T14:19:21.808Z,39.20
2018-06-28T14:21:50.225Z,38.90
2018-06-28T14:24:18.609Z,38.20
2018-06-28T14:26:47.005Z,38.30
2018-06-28T14:29:15.390Z,37.80
2018-06-28T14:31:43.793Z,37.80
2018-06-28T14:36:40.331Z,38.70
2018-06-28T14:41:37.307Z,39.00
2018-06-28T14:44:05.770Z,39.00
2018-06-28T14:46:34.247Z,39.30
2018-06-28T14:49:02.647Z,39.60
2018-06-28T14:51:31.449Z,39.70
2018-06-28T14:53:59.841Z,38.80
2018-06-28T14:56:28.308Z,38.90
2018-06-28T14:58:56.735Z,38.00
2018-06-28T15:01:25.247Z,38.30
2018-06-28T15:03:53.628Z,39.20
2018-06-28T15:06:22.028Z,39.60
2018-06-28T15:08:50.539Z,39.40
2018-06-28T15:11:18.996Z,39.20
2018-06-28T15:13:47.432Z,39.60
2018-06-28T15:16:15.833Z,39.10
2018-06-28T15:21:12.588Z,38.50
2018-06-28T15:23:41.072Z,38.70
2018-06-28T15:31:05.837Z,39.70
2018-06-28T15:33:34.252Z,39.30
2018-06-28T15:36:07.266Z,39.00
2018-06-28T15:38:35.739Z,38.90
2018-06-28T15:41:04.118Z,38.30
2018-06-28T15:43:32.579Z,38.20
2018-06-28T15:46:01.071Z,38.70
2018-06-28T15:48:29.528Z,39.60
2018-06-28T15:50:57.978Z,40.00
2018-06-28T15:53:26.420Z,40.40
2018-06-28T15:55:54.870Z,40.70
2018-06-28T16:00:51.422Z,40.80
2018-06-28T16:03:19.825Z,40.70
2018-06-28T16:05:48.568Z,40.70
2018-06-28T16:08:16.982Z,40.60
2018-06-28T16:10:45.399Z,40.40
2018-06-28T16:13:13.933Z,40.10
2018-06-28T16:18:10.462Z,39.90
2018-06-28T16:20:38.867Z,39.50
2018-06-28T16:23:07.297Z,39.60
2018-06-28T16:25:35.748Z,40.10
2018-06-28T16:28:04.538Z,40.40
2018-06-28T16:30:32.928Z,40.70
2018-06-28T16:33:01.281Z,41.40
2018-06-28T16:35:29.724Z,41.50
2018-06-28T16:37:58.101Z,41.50
2018-06-28T16:40:26.502Z,41.60
2018-06-28T16:42:54.916Z,41.30
2018-06-28T16:45:23.501Z,41.40
2018-06-28T16:47:51.896Z,41.50
2018-06-28T16:50:20.299Z,41.60
2018-06-28T16:52:48.722Z,41.90
2018-06-28T16:55:17.213Z,42.20
2018-06-28T16:57:45.744Z,41.10
2018-06-28T17:00:14.244Z,40.40
2018-06-28T17:05:10.716Z,40.80
2018-06-28T17:07:39.416Z,40.80
2018-06-28T17:10:07.864Z,40.90
2018-06-28T17:15:04.865Z,41.00
2018-06-28T17:17:33.678Z,40.90
2018-06-28T17:20:02.113Z,40.80
2018-06-28T17:22:31.119Z,41.10
2018-06-28T17:24:59.625Z,41.20
2018-06-28T17:27:28.056Z,41.30
2018-06-28T17:32:24.635Z,41.40
2018-06-28T17:34:53.043Z,41.00
2018-06-28T17:37:21.539Z,41.10
2018-06-28T17:39:50.748Z,41.20
2018-06-28T17:42:19.178Z,41.50
2018-06-28T17:44:47.619Z,41.90
2018-06-28T17:49:44.205Z,41.30
2018-06-28T17:52:12.612Z,41.30
2018-06-28T17:54:41.020Z,41.60
2018-06-28T17:57:09.716Z,41.90
2018-06-28T18:02:06.230Z,42.00
2018-06-28T18:04:34.668Z,42.10
2018-06-28T18:07:03.069Z,42.30
2018-06-28T18:09:31.499Z,41.70
2018-06-28T18:14:27.972Z,41.90
2018-06-28T18:16:56.420Z,41.90
2018-06-28T18:19:24.849Z,42.20
2018-06-28T18:21:53.632Z,42.60
2018-06-28T18:24:21.987Z,42.60
2018-06-28T18:26:50.448Z,42.80
2018-06-28T18:29:18.890Z,42.70
2018-06-28T18:31:47.349Z,43.20
2018-06-28T18:34:15.950Z,43.10
2018-06-28T18:36:44.436Z,43.00
2018-06-28T18:39:12.834Z,43.00
2018-06-28T18:41:41.279Z,43.10
2018-06-28T18:44:09.709Z,43.70
2018-06-28T18:46:38.101Z,43.10
2018-06-28T18:51:34.689Z,43.20
2018-06-28T18:54:03.201Z,43.30
2018-06-28T18:56:31.763Z,43.30
2018-06-28T18:59:00.149Z,43.40
2018-06-28T19:01:28.584Z,43.40
2018-06-28T19:03:56.978Z,43.60
2018-06-28T19:06:25.432Z,43.70
2018-06-28T19:08:53.899Z,43.90
2018-06-28T19:11:22.320Z,44.00
2018-06-28T19:13:56.057Z,44.00
2018-06-28T19:16:29.684Z,44.00
2018-06-28T19:18:58.181Z,44.20
2018-06-28T19:21:31.999Z,44.80
2018-06-28T19:24:00.469Z,44.50
2018-06-28T19:28:57.174Z,44.80
2018-06-28T19:31:30.963Z,44.90
2018-06-28T19:33:59.438Z,45.70
2018-06-28T19:36:27.917Z,45.30
2018-06-28T19:39:01.709Z,45.50
2018-06-28T19:41:35.563Z,45.50
2018-06-28T19:44:04.018Z,45.50
2018-06-28T19:46:32.447Z,45.70
2018-06-28T19:49:00.877Z,45.90
2018-06-28T19:51:34.716Z,46.00
2018-06-28T19:54:03.130Z,46.10
2018-06-28T19:56:31.515Z,46.20
2018-06-28T20:01:33.604Z,46.50
2018-06-28T20:09:05.831Z,47.00
2018-06-28T20:11:34.244Z,47.20
2018-06-28T20:14:07.919Z,47.30
2018-06-28T20:16:41.801Z,47.60
2018-06-28T20:19:15.561Z,47.80
2018-06-28T20:21:43.934Z,47.90
2018-06-28T20:24:12.334Z,47.90
2018-06-28T20:27:50.153Z,48.00
2018-06-28T20:32:57.275Z,48.40
2018-06-28T20:35:25.691Z,48.60
2018-06-28T20:37:54.105Z,48.60
2018-06-28T20:45:18.712Z,49.80
2018-06-28T20:47:47.148Z,50.10
2018-06-28T20:50:16.208Z,50.20
2018-06-28T20:57:40.827Z,50.80
2018-06-28T21:02:38.415Z,52.30
2018-06-28T21:05:07.096Z,51.90
2018-06-28T21:10:03.904Z,52.20
2018-06-28T21:12:32.237Z,52.40
2018-06-28T21:15:00.724Z,52.70
2018-06-28T21:19:57.271Z,53.30
2018-06-28T21:24:53.769Z,53.90
2018-06-28T21:27:22.146Z,54.40
2018-06-28T21:29:50.598Z,54.50
2018-06-28T21:32:18.997Z,54.80
2018-06-28T21:34:47.608Z,55.30
2018-06-28T21:37:15.973Z,55.70
2018-06-28T21:39:44.387Z,55.70
2018-06-28T21:44:40.888Z,56.30
2018-06-28T21:47:09.316Z,56.50
2018-06-28T21:49:37.706Z,56.80
2018-06-28T21:52:06.118Z,56.80
2018-06-28T21:54:34.496Z,57.30
2018-06-28T21:57:02.893Z,57.40
2018-06-28T21:59:31.374Z,57.60
2018-06-28T22:01:59.815Z,57.80
2018-06-28T22:04:28.218Z,58.10
2018-06-28T22:06:56.615Z,58.10
2018-06-28T22:09:25.043Z,58.20
2018-06-28T22:11:53.441Z,58.30
2018-06-28T22:14:21.964Z,58.10
2018-06-28T22:16:50.242Z,58.90
2018-06-28T22:19:18.670Z,59.20
2018-06-28T22:24:15.287Z,59.90
2018-06-28T22:26:43.763Z,60.80
2018-06-28T22:29:12.188Z,61.20
2018-06-28T22:31:40.572Z,60.70
2018-06-28T22:34:09.280Z,61.10
2018-06-28T22:36:37.631Z,61.50
2018-06-28T22:39:08.967Z,61.60
2018-06-28T22:46:34.060Z,62.90
2018-06-28T22:49:02.495Z,63.00
2018-06-28T22:51:30.966Z,63.40
2018-06-28T22:56:27.501Z,64.20
2018-06-28T22:58:55.909Z,63.80
2018-06-28T23:01:24.366Z,64.90
2018-06-28T23:03:52.940Z,65.20
2018-06-28T23:08:49.431Z,66.60
2018-06-28T23:11:17.855Z,66.20
2018-06-28T23:13:46.306Z,66.30
2018-06-28T23:16:15.220Z,66.30
2018-06-28T23:18:43.608Z,66.40
2018-06-28T23:21:12.976Z,66.50
2018-06-28T23:23:41.345Z,66.80
2018-06-28T23:26:09.735Z,67.00
2018-06-28T23:28:38.179Z,67.20
2018-06-28T23:31:06.612Z,67.50
2018-06-28T23:33:35.013Z,67.70
2018-06-28T23:36:03.413Z,67.70
2018-06-28T23:38:31.800Z,67.80
2018-06-28T23:41:00.171Z,67.80
2018-06-28T23:45:56.684Z,68.20
2018-06-28T23:48:25.050Z,68.50
2018-06-28T23:50:53.502Z,68.60
2018-06-28T23:53:21.910Z,68.60
2018-06-28T23:55:50.305Z,68.80
2018-06-28T23:58:18.900Z,68.90
